createdAt,value
2017-12-24T00:01:20.250Z,4.57
2017-12-24T00:03:47.736Z,5.23
2017-12-24T00:06:15.289Z,4.80
2017-12-24T00:08:43.261Z,4.30
2017-12-24T00:11:10.733Z,4.83
2017-12-24T00:13:38.277Z,5.80
2017-12-24T00:16:05.754Z,5.03
2017-12-24T00:18:33.216Z,4.73
2017-12-24T00:21:00.784Z,4.53
2017-12-24T00:23:28.305Z,4.13
2017-12-24T00:25:55.800Z,4.77
2017-12-24T00:28:23.349Z,5.30
2017-12-24T00:30:50.806Z,5.30
2017-12-24T00:33:18.521Z,5.00
2017-12-24T00:35:46.025Z,5.07
2017-12-24T00:38:14.884Z,5.07
2017-12-24T00:40:42.391Z,4.50
2017-12-24T00:43:09.915Z,4.27
2017-12-24T00:45:37.412Z,4.70
2017-12-24T00:48:04.965Z,5.97
2017-12-24T00:50:35.996Z,5.00
2017-12-24T00:53:03.580Z,5.00
2017-12-24T00:55:31.088Z,4.73
2017-12-24T00:57:58.564Z,5.20
2017-12-24T01:00:26.203Z,5.60
2017-12-24T01:02:53.717Z,5.83
2017-12-24T01:05:21.238Z,4.53
2017-12-24T01:07:48.691Z,5.03
2017-12-24T01:10:16.855Z,4.60
2017-12-24T01:12:47.514Z,5.30
2017-12-24T01:15:15.557Z,4.33
2017-12-24T01:17:43.148Z,5.23
2017-12-24T01:20:10.703Z,4.80
2017-12-24T01:22:38.337Z,5.07
2017-12-24T01:25:05.947Z,4.90
2017-12-24T01:27:33.564Z,4.63
2017-12-24T01:30:01.112Z,4.63
2017-12-24T01:32:28.701Z,4.50
2017-12-24T01:34:56.248Z,4.67
2017-12-24T01:37:23.789Z,5.17
2017-12-24T01:39:51.296Z,5.07
2017-12-24T01:42:18.771Z,5.40
2017-12-24T01:44:46.283Z,4.70
2017-12-24T01:47:13.781Z,4.60
2017-12-24T01:49:41.294Z,5.50
2017-12-24T01:52:08.797Z,4.40
2017-12-24T01:54:36.293Z,4.70
2017-12-24T01:57:03.769Z,4.93
2017-12-24T01:59:31.225Z,5.10
2017-12-24T02:01:58.686Z,5.23
2017-12-24T02:04:26.172Z,5.40
2017-12-24T02:06:53.643Z,4.83
2017-12-24T02:09:21.124Z,5.40
2017-12-24T02:11:48.600Z,5.83
2017-12-24T02:14:16.197Z,5.40
2017-12-24T02:16:43.737Z,5.63
2017-12-24T02:19:11.214Z,5.70
2017-12-24T02:21:38.690Z,5.10
2017-12-24T02:24:06.151Z,4.63
2017-12-24T02:26:33.977Z,5.80
2017-12-24T02:29:01.480Z,5.30
2017-12-24T02:31:28.945Z,4.93
2017-12-24T02:33:57.474Z,4.67
2017-12-24T02:36:26.315Z,5.60
2017-12-24T02:38:54.249Z,5.10
2017-12-24T02:41:21.773Z,4.63
2017-12-24T02:43:49.234Z,5.00
2017-12-24T02:46:16.740Z,4.80
2017-12-24T02:48:45.040Z,5.10
2017-12-24T02:51:12.525Z,4.80
2017-12-24T02:53:40.003Z,4.53
2017-12-24T02:56:07.494Z,5.33
2017-12-24T02:58:34.973Z,5.37
2017-12-24T03:01:02.453Z,5.30
2017-12-24T03:03:29.961Z,5.47
2017-12-24T03:05:57.443Z,5.93
2017-12-24T03:08:24.961Z,4.90
2017-12-24T03:10:52.441Z,5.10
2017-12-24T03:13:19.911Z,5.73
2017-12-24T03:15:47.370Z,5.60
2017-12-24T03:18:14.835Z,5.10
2017-12-24T03:20:42.344Z,5.17
2017-12-24T03:23:09.805Z,4.97
2017-12-24T03:25:37.276Z,5.67
2017-12-24T03:28:04.740Z,5.37
2017-12-24T03:30:32.205Z,6.10
2017-12-24T03:32:59.703Z,5.30
2017-12-24T03:35:27.164Z,5.63
2017-12-24T03:37:54.671Z,5.37
2017-12-24T03:40:22.189Z,5.97
2017-12-24T03:42:49.697Z,5.60
2017-12-24T03:45:17.156Z,5.60
2017-12-24T03:47:44.635Z,5.90
2017-12-24T03:50:12.084Z,5.30
2017-12-24T03:52:39.549Z,5.20
2017-12-24T03:55:07.024Z,5.27
2017-12-24T03:57:34.547Z,6.00
2017-12-24T04:00:01.999Z,5.97
2017-12-24T04:02:33.088Z,5.40
2017-12-24T04:05:00.536Z,7.00
2017-12-24T04:07:28.052Z,6.53
2017-12-24T04:09:55.601Z,6.43
2017-12-24T04:12:23.254Z,6.73
2017-12-24T04:14:50.744Z,6.40
2017-12-24T04:17:18.277Z,7.77
2017-12-24T04:19:45.801Z,6.50
2017-12-24T04:22:13.439Z,6.80
2017-12-24T04:24:40.949Z,6.37
2017-12-24T04:27:08.441Z,6.83
2017-12-24T04:29:35.899Z,7.33
2017-12-24T04:32:03.368Z,7.10
2017-12-24T04:34:30.910Z,6.70
2017-12-24T04:36:58.367Z,7.63
2017-12-24T04:39:25.817Z,7.23
2017-12-24T04:41:53.277Z,6.97
2017-12-24T04:44:20.779Z,7.20
2017-12-24T04:46:48.226Z,7.17
2017-12-24T04:49:15.880Z,8.37
2017-12-24T04:51:43.351Z,7.40
2017-12-24T04:54:10.906Z,7.73
2017-12-24T04:56:38.361Z,7.07
2017-12-24T04:59:05.914Z,7.80
2017-12-24T05:01:34.344Z,7.40
2017-12-24T05:04:01.803Z,7.13
2017-12-24T05:06:29.489Z,7.70
2017-12-24T05:08:56.952Z,7.93
2017-12-24T05:11:24.415Z,7.50
2017-12-24T05:13:51.949Z,7.77
2017-12-24T05:16:19.428Z,7.57
2017-12-24T05:18:47.165Z,8.00
2017-12-24T05:21:14.753Z,8.07
2017-12-24T05:23:42.377Z,8.07
2017-12-24T05:26:09.883Z,7.20
2017-12-24T05:28:37.369Z,6.73
2017-12-24T05:31:04.816Z,8.10
2017-12-24T05:33:32.272Z,7.40
2017-12-24T05:35:59.787Z,7.80
2017-12-24T05:38:27.234Z,6.80
2017-12-24T05:40:54.696Z,7.40
2017-12-24T05:43:22.147Z,7.47
2017-12-24T05:45:49.607Z,7.50
2017-12-24T05:48:18.132Z,8.60
2017-12-24T05:50:45.664Z,8.30
2017-12-24T05:53:13.312Z,7.30
2017-12-24T05:55:40.822Z,8.20
2017-12-24T05:58:08.272Z,7.80
2017-12-24T06:00:35.716Z,8.57
2017-12-24T06:03:03.198Z,7.70
2017-12-24T06:05:30.648Z,7.23
2017-12-24T06:07:58.099Z,7.50
2017-12-24T06:10:25.567Z,8.10
2017-12-24T06:12:53.031Z,8.00
2017-12-24T06:15:20.475Z,8.03
2017-12-24T06:17:47.944Z,8.73
2017-12-24T06:20:15.582Z,7.93
2017-12-24T06:22:43.623Z,7.87
2017-12-24T06:25:11.212Z,7.63
2017-12-24T06:27:38.716Z,8.10
2017-12-24T06:30:06.176Z,8.40
2017-12-24T06:32:33.647Z,8.17
2017-12-24T06:35:01.142Z,7.67
2017-12-24T06:37:28.601Z,8.57
2017-12-24T06:39:56.057Z,6.63
2017-12-24T06:42:24.077Z,8.00
2017-12-24T06:44:51.556Z,8.47
2017-12-24T06:47:19.142Z,8.20
2017-12-24T06:49:46.608Z,7.87
2017-12-24T06:52:14.850Z,7.60
2017-12-24T06:54:43.153Z,7.93
2017-12-24T06:57:10.682Z,8.13
2017-12-24T06:59:38.143Z,7.07
2017-12-24T07:02:07.778Z,7.47
2017-12-24T07:04:35.555Z,6.93
2017-12-24T07:07:03.032Z,8.30
2017-12-24T07:09:30.672Z,7.70
2017-12-24T07:11:58.176Z,7.30
2017-12-24T07:14:25.683Z,8.00
2017-12-24T07:16:53.148Z,7.40
2017-12-24T07:19:20.656Z,7.00
2017-12-24T07:21:48.201Z,7.60
2017-12-24T07:24:22.273Z,7.83
2017-12-24T07:26:49.867Z,6.80
2017-12-24T07:29:17.332Z,6.87
2017-12-24T07:31:44.791Z,7.57
2017-12-24T07:34:12.303Z,6.73
2017-12-24T07:36:39.781Z,6.77
2017-12-24T07:39:07.251Z,7.80
2017-12-24T07:41:34.766Z,7.93
2017-12-24T07:44:02.310Z,7.30
2017-12-24T07:46:30.340Z,7.77
2017-12-24T07:48:57.889Z,8.20
2017-12-24T07:51:25.419Z,7.67
2017-12-24T07:53:52.909Z,7.90
2017-12-24T07:56:20.423Z,8.87
2017-12-24T07:58:47.892Z,7.60
2017-12-24T08:04:01.928Z,8.80
2017-12-24T08:06:30.674Z,8.03
2017-12-24T08:08:58.155Z,8.77
2017-12-24T08:11:25.626Z,8.63
2017-12-24T08:13:53.081Z,9.43
2017-12-24T08:16:20.748Z,8.03
2017-12-24T08:18:48.236Z,9.00
2017-12-24T08:21:17.568Z,8.80
2017-12-24T08:23:45.124Z,9.73
2017-12-24T08:26:13.105Z,10.13
2017-12-24T08:28:40.584Z,9.13
2017-12-24T08:31:08.044Z,8.40
2017-12-24T08:33:35.568Z,8.57
2017-12-24T08:36:03.044Z,8.77
2017-12-24T08:38:32.244Z,8.37
2017-12-24T08:40:59.790Z,8.80
2017-12-24T08:43:27.271Z,8.30
2017-12-24T08:45:54.785Z,8.80
2017-12-24T08:48:22.462Z,9.13
2017-12-24T08:50:50.021Z,9.17
2017-12-24T08:53:17.890Z,9.57
2017-12-24T08:55:52.640Z,9.77
2017-12-24T08:58:20.189Z,10.03
2017-12-24T09:00:55.884Z,10.13
2017-12-24T09:03:23.527Z,9.23
2017-12-24T09:05:51.094Z,9.60
2017-12-24T09:08:18.684Z,8.90
2017-12-24T09:10:46.302Z,10.40
2017-12-24T09:13:13.794Z,9.10
2017-12-24T09:15:42.692Z,9.27
2017-12-24T09:18:10.194Z,9.80
2017-12-24T09:20:38.337Z,9.43
2017-12-24T09:23:06.021Z,9.20
2017-12-24T09:25:34.278Z,9.23
2017-12-24T09:28:02.764Z,9.40
2017-12-24T09:30:30.278Z,9.27
2017-12-24T09:32:57.775Z,10.33
2017-12-24T09:35:25.246Z,8.90
2017-12-24T09:37:52.733Z,9.27
2017-12-24T09:40:20.200Z,8.90
2017-12-24T09:42:48.260Z,9.27
2017-12-24T09:45:17.070Z,8.70
2017-12-24T09:47:44.559Z,7.73
2017-12-24T09:50:12.039Z,8.83
2017-12-24T09:52:39.509Z,8.40
2017-12-24T09:55:06.955Z,8.70
2017-12-24T09:57:34.515Z,8.90
2017-12-24T10:00:01.999Z,8.80
2017-12-24T10:02:30.040Z,9.23
2017-12-24T10:04:57.501Z,8.60
2017-12-24T10:07:25.100Z,9.10
2017-12-24T10:09:52.563Z,9.00
2017-12-24T10:12:20.091Z,8.90
2017-12-24T10:14:47.937Z,8.93
2017-12-24T10:17:15.589Z,8.60
2017-12-24T10:19:43.082Z,8.77
2017-12-24T10:22:10.578Z,8.70
2017-12-24T10:24:38.064Z,8.00
2017-12-24T10:27:06.284Z,8.67
2017-12-24T10:29:33.821Z,8.60
2017-12-24T10:32:01.283Z,8.53
2017-12-24T10:34:28.809Z,8.27
2017-12-24T10:36:56.295Z,8.60
2017-12-24T10:39:23.827Z,8.77
2017-12-24T10:41:51.288Z,8.40
2017-12-24T10:44:18.811Z,8.60
2017-12-24T10:46:46.356Z,7.97
2017-12-24T10:49:13.853Z,8.20
2017-12-24T10:51:41.407Z,7.33
2017-12-24T10:54:08.876Z,7.60
2017-12-24T10:56:36.564Z,8.13
2017-12-24T10:59:04.096Z,8.33
2017-12-24T11:01:31.582Z,7.10
2017-12-24T11:03:58.516Z,7.27
2017-12-24T11:06:26.703Z,7.40
2017-12-24T11:08:55.245Z,7.43
2017-12-24T11:11:23.607Z,6.77
2017-12-24T11:13:51.095Z,7.10
2017-12-24T11:16:18.673Z,7.20
2017-12-24T11:18:46.181Z,7.40
2017-12-24T11:21:13.716Z,6.93
2017-12-24T11:23:41.931Z,7.13
2017-12-24T11:26:09.565Z,7.00
2017-12-24T11:28:44.253Z,7.80
2017-12-24T11:31:11.799Z,8.20
2017-12-24T11:33:39.373Z,7.07
2017-12-24T11:36:06.854Z,7.67
2017-12-24T11:38:34.480Z,7.90
2017-12-24T11:41:02.007Z,7.40
2017-12-24T11:43:29.457Z,8.10
2017-12-24T11:45:57.000Z,7.00
2017-12-24T11:48:25.391Z,7.90
2017-12-24T11:50:52.895Z,7.57
2017-12-24T11:53:21.249Z,7.60
2017-12-24T11:55:48.735Z,6.97
2017-12-24T11:58:16.891Z,7.07
2017-12-24T12:00:44.771Z,7.33
2017-12-24T12:03:12.249Z,6.70
2017-12-24T12:05:39.720Z,6.53
2017-12-24T12:08:07.208Z,8.10
2017-12-24T12:10:34.683Z,7.33
2017-12-24T12:13:02.171Z,8.23
2017-12-24T12:15:29.672Z,8.17
2017-12-24T12:17:57.184Z,7.70
2017-12-24T12:20:25.833Z,8.37
2017-12-24T12:22:53.505Z,8.90
2017-12-24T12:25:21.022Z,9.27
2017-12-24T12:27:48.619Z,9.33
2017-12-24T12:30:19.045Z,8.03
2017-12-24T12:32:46.554Z,8.83
2017-12-24T12:35:14.132Z,9.13
2017-12-24T12:37:42.847Z,8.30
2017-12-24T12:40:10.367Z,8.90
2017-12-24T12:42:37.968Z,9.50
2017-12-24T12:45:05.704Z,9.37
2017-12-24T12:47:33.576Z,8.90
2017-12-24T12:50:01.097Z,9.13
2017-12-24T12:52:32.015Z,10.03
2017-12-24T12:55:00.726Z,9.00
2017-12-24T12:57:30.887Z,9.20
2017-12-24T12:59:58.532Z,9.40
2017-12-24T13:02:26.049Z,9.97
2017-12-24T13:04:53.521Z,10.00
2017-12-24T13:07:22.264Z,10.93
2017-12-24T13:09:49.886Z,9.87
2017-12-24T13:12:17.923Z,8.30
2017-12-24T13:14:45.785Z,9.10
2017-12-24T13:17:13.306Z,9.27
2017-12-24T13:19:40.769Z,9.73
2017-12-24T13:22:08.255Z,9.27
2017-12-24T13:24:35.980Z,9.50
2017-12-24T13:27:03.541Z,9.20
2017-12-24T13:29:31.108Z,10.50
2017-12-24T13:31:58.967Z,9.10
2017-12-24T13:34:26.619Z,9.10
2017-12-24T13:36:56.210Z,10.63
2017-12-24T13:39:24.621Z,8.90
2017-12-24T13:41:52.162Z,9.73
2017-12-24T13:44:19.708Z,8.53
2017-12-24T13:46:48.361Z,9.67
2017-12-24T13:49:16.050Z,9.13
2017-12-24T13:51:48.613Z,9.63
2017-12-24T13:54:16.923Z,9.13
2017-12-24T13:56:47.100Z,8.57
2017-12-24T13:59:14.601Z,9.30
2017-12-24T14:01:42.485Z,9.60
2017-12-24T14:04:10.680Z,9.00
2017-12-24T14:06:39.369Z,8.87
2017-12-24T14:09:07.710Z,9.20
2017-12-24T14:11:35.180Z,8.87
2017-12-24T14:14:03.242Z,8.73
2017-12-24T14:16:32.014Z,9.00
2017-12-24T14:19:00.175Z,8.73
2017-12-24T14:21:29.230Z,8.70
2017-12-24T14:23:57.468Z,8.13
2017-12-24T14:26:24.940Z,8.20
2017-12-24T14:28:52.737Z,8.90
2017-12-24T14:31:20.243Z,8.03
2017-12-24T14:33:47.821Z,8.43
2017-12-24T14:36:17.012Z,7.73
2017-12-24T14:38:44.556Z,7.40
2017-12-24T14:41:12.072Z,7.40
2017-12-24T14:43:39.814Z,8.10
2017-12-24T14:46:07.388Z,8.47
2017-12-24T14:48:35.052Z,7.20
2017-12-24T14:51:02.537Z,7.90
2017-12-24T14:53:30.016Z,8.07
2017-12-24T14:55:59.322Z,8.60
2017-12-24T14:58:26.787Z,8.73
2017-12-24T15:00:54.333Z,9.03
2017-12-24T15:03:21.810Z,9.60
2017-12-24T15:05:49.295Z,8.97
2017-12-24T15:08:17.198Z,8.50
2017-12-24T15:13:18.389Z,8.17
2017-12-24T15:15:45.839Z,8.50
2017-12-24T15:18:13.306Z,9.03
2017-12-24T15:20:40.773Z,9.30
2017-12-24T15:23:08.313Z,9.60
2017-12-24T15:25:35.769Z,9.90
2017-12-24T15:28:03.251Z,9.03
2017-12-24T15:30:31.889Z,9.77
2017-12-24T15:32:59.358Z,9.03
2017-12-24T15:35:26.837Z,9.73
2017-12-24T15:37:54.572Z,9.10
2017-12-24T15:40:22.205Z,10.60
2017-12-24T15:42:49.862Z,10.10
2017-12-24T15:45:17.795Z,11.30
2017-12-24T15:47:45.270Z,10.30
2017-12-24T15:50:12.828Z,10.90
2017-12-24T15:52:40.300Z,12.33
2017-12-24T15:55:07.803Z,11.80
2017-12-24T15:57:35.352Z,11.50
2017-12-24T16:00:02.908Z,11.03
2017-12-24T16:02:30.861Z,11.13
2017-12-24T16:04:58.496Z,10.30
2017-12-24T16:07:26.006Z,10.30
2017-12-24T16:09:53.497Z,10.80
2017-12-24T16:12:20.986Z,10.10
2017-12-24T16:14:48.457Z,9.67
2017-12-24T16:17:15.911Z,10.83
2017-12-24T16:19:43.423Z,10.57
2017-12-24T16:22:11.824Z,11.90
2017-12-24T16:24:39.297Z,10.53
2017-12-24T16:27:06.845Z,10.27
2017-12-24T16:29:34.618Z,11.00
2017-12-24T16:32:02.591Z,10.27
2017-12-24T16:34:31.076Z,10.13
2017-12-24T16:36:58.568Z,9.63
2017-12-24T16:39:26.644Z,10.67
2017-12-24T16:41:54.125Z,11.00
2017-12-24T16:44:21.650Z,10.60
2017-12-24T16:46:49.108Z,10.57
2017-12-24T16:49:16.601Z,10.80
2017-12-24T16:51:45.239Z,10.40
2017-12-24T16:54:12.735Z,10.30
2017-12-24T16:56:40.214Z,9.77
2017-12-24T16:59:07.697Z,10.43
2017-12-24T17:01:35.265Z,11.03
2017-12-24T17:04:02.788Z,9.90
2017-12-24T17:06:30.622Z,10.87
2017-12-24T17:08:58.139Z,12.17
2017-12-24T17:11:25.969Z,9.70
2017-12-24T17:13:53.468Z,10.20
2017-12-24T17:16:21.017Z,11.17
2017-12-24T17:18:48.476Z,10.33
2017-12-24T17:21:16.313Z,10.70
2017-12-24T17:23:43.808Z,10.57
2017-12-24T17:26:11.293Z,10.00
2017-12-24T17:28:39.031Z,11.40
2017-12-24T17:31:06.507Z,12.00
2017-12-24T17:33:34.044Z,9.57
2017-12-24T17:36:01.563Z,9.10
2017-12-24T17:38:29.299Z,9.87
2017-12-24T17:40:56.798Z,9.20
2017-12-24T17:43:24.271Z,9.53
2017-12-24T17:45:51.748Z,10.03
2017-12-24T17:48:19.201Z,8.77
2017-12-24T17:50:46.688Z,11.00
2017-12-24T17:53:14.191Z,10.60
2017-12-24T17:55:41.679Z,10.50
2017-12-24T17:58:09.123Z,9.20
2017-12-24T18:00:36.644Z,9.50
2017-12-24T18:03:04.118Z,10.60
2017-12-24T18:05:31.584Z,9.80
2017-12-24T18:07:59.076Z,10.63
2017-12-24T18:10:26.531Z,10.17
2017-12-24T18:12:53.989Z,10.07
2017-12-24T18:15:21.473Z,9.90
2017-12-24T18:17:48.935Z,8.60
2017-12-24T18:20:16.427Z,9.40
2017-12-24T18:22:43.911Z,9.50
2017-12-24T18:25:11.373Z,10.03
2017-12-24T18:27:38.827Z,10.17
2017-12-24T18:30:06.388Z,10.00
2017-12-24T18:32:34.148Z,11.20
2017-12-24T18:35:01.682Z,9.50
2017-12-24T18:37:29.164Z,10.03
2017-12-24T18:39:56.632Z,9.83
2017-12-24T18:42:24.404Z,10.20
2017-12-24T18:44:52.451Z,10.43
2017-12-24T18:47:20.652Z,11.00
2017-12-24T18:49:48.341Z,10.43
2017-12-24T18:52:17.246Z,11.03
2017-12-24T18:54:45.250Z,10.20
2017-12-24T18:57:12.748Z,10.80
2017-12-24T18:59:40.240Z,11.23
2017-12-24T19:04:41.857Z,9.67
2017-12-24T19:07:09.356Z,12.23
2017-12-24T19:09:36.868Z,10.53
2017-12-24T19:12:04.330Z,10.37
2017-12-24T19:14:31.815Z,10.10
2017-12-24T19:16:59.306Z,11.13
2017-12-24T19:19:26.841Z,10.93
2017-12-24T19:21:54.320Z,11.20
2017-12-24T19:24:21.814Z,10.20
2017-12-24T19:26:49.333Z,10.67
2017-12-24T19:29:16.806Z,10.30
2017-12-24T19:31:44.290Z,11.10
2017-12-24T19:34:11.767Z,10.73
2017-12-24T19:36:39.265Z,10.40
2017-12-24T19:39:06.769Z,10.33
2017-12-24T19:41:34.269Z,11.43
2017-12-24T19:44:01.753Z,10.50
2017-12-24T19:46:29.299Z,11.10
2017-12-24T19:48:57.117Z,10.40
2017-12-24T19:51:24.870Z,11.00
2017-12-24T19:53:52.588Z,12.63
2017-12-24T19:56:21.040Z,12.27
2017-12-24T19:58:48.700Z,12.40
2017-12-24T20:01:16.761Z,13.30
2017-12-24T20:03:44.242Z,13.00
2017-12-24T20:06:11.706Z,12.07
2017-12-24T20:08:40.180Z,12.47
2017-12-24T20:11:07.703Z,12.53
2017-12-24T20:13:35.171Z,12.50
2017-12-24T20:16:02.633Z,12.07
2017-12-24T20:18:30.123Z,13.03
2017-12-24T20:20:57.640Z,12.47
2017-12-24T20:23:25.121Z,13.73
2017-12-24T20:25:52.634Z,12.10
2017-12-24T20:28:20.136Z,12.87
2017-12-24T20:30:47.619Z,12.73
2017-12-24T20:33:15.471Z,11.60
2017-12-24T20:35:42.946Z,12.53
2017-12-24T20:38:10.427Z,11.73
2017-12-24T20:40:37.901Z,13.37
2017-12-24T20:43:05.379Z,12.93
2017-12-24T20:45:32.857Z,12.87
2017-12-24T20:48:00.392Z,12.10
2017-12-24T20:50:27.857Z,12.50
2017-12-24T20:52:55.336Z,12.77
2017-12-24T20:55:23.781Z,13.33
2017-12-24T20:57:51.285Z,12.60
2017-12-24T21:00:19.060Z,12.40
2017-12-24T21:02:47.202Z,13.30
2017-12-24T21:05:14.729Z,12.33
2017-12-24T21:07:42.339Z,12.73
2017-12-24T21:10:09.888Z,13.43
2017-12-24T21:12:46.207Z,12.97
2017-12-24T21:15:15.015Z,13.20
2017-12-24T21:17:42.893Z,13.40
2017-12-24T21:20:10.375Z,12.73
2017-12-24T21:22:37.948Z,13.17
2017-12-24T21:25:05.400Z,12.80
2017-12-24T21:27:32.909Z,13.00
2017-12-24T21:30:02.714Z,12.87
2017-12-24T21:32:31.592Z,13.07
2017-12-24T21:34:59.490Z,13.30
2017-12-24T21:37:27.033Z,12.43
2017-12-24T21:39:54.521Z,12.67
2017-12-24T21:42:21.973Z,13.27
2017-12-24T21:44:49.460Z,13.63
2017-12-24T21:47:17.005Z,13.00
2017-12-24T21:49:44.536Z,12.73
2017-12-24T21:52:12.136Z,13.10
2017-12-24T21:54:39.638Z,13.43
2017-12-24T21:57:07.098Z,12.43
2017-12-24T21:59:34.776Z,13.13
2017-12-24T22:02:02.303Z,12.30
2017-12-24T22:04:29.829Z,13.07
2017-12-24T22:06:57.440Z,13.60
2017-12-24T22:09:24.933Z,12.13
2017-12-24T22:11:52.526Z,12.43
2017-12-24T22:14:20.068Z,13.07
2017-12-24T22:16:47.583Z,12.07
2017-12-24T22:19:15.079Z,11.93
2017-12-24T22:21:42.648Z,12.53
2017-12-24T22:24:10.116Z,13.60
2017-12-24T22:26:37.587Z,11.70
2017-12-24T22:29:05.065Z,13.40
2017-12-24T22:31:32.537Z,13.37
2017-12-24T22:33:59.981Z,13.37
2017-12-24T22:36:27.702Z,14.30
2017-12-24T22:38:55.167Z,13.33
2017-12-24T22:41:22.670Z,13.60
2017-12-24T22:43:50.153Z,13.40
2017-12-24T22:46:18.161Z,14.00
2017-12-24T22:48:48.726Z,13.97
2017-12-24T22:51:20.586Z,14.80
2017-12-24T22:53:49.171Z,14.13
2017-12-24T22:56:18.615Z,13.97
2017-12-24T23:01:13.717Z,15.50
2017-12-24T23:03:44.239Z,14.90
2017-12-24T23:06:11.872Z,16.17
2017-12-24T23:08:39.387Z,15.47
2017-12-24T23:11:07.063Z,16.77
2017-12-24T23:13:35.011Z,16.07
2017-12-24T23:16:02.542Z,16.90
2017-12-24T23:18:30.018Z,16.30
2017-12-24T23:20:57.496Z,16.00
2017-12-24T23:23:25.001Z,16.67
2017-12-24T23:25:52.474Z,15.53
2017-12-24T23:28:20.179Z,16.90
2017-12-24T23:30:50.494Z,17.70
2017-12-24T23:33:18.099Z,18.73
2017-12-24T23:35:45.612Z,17.23
2017-12-24T23:38:13.433Z,16.27
2017-12-24T23:40:41.052Z,15.97
2017-12-24T23:43:08.576Z,18.30
2017-12-24T23:45:36.044Z,17.27
2017-12-24T23:48:03.606Z,16.80
2017-12-24T23:50:32.274Z,18.03
2017-12-24T23:52:59.790Z,17.50
2017-12-24T23:55:27.289Z,18.60
2017-12-24T23:57:56.682Z,18.57
